Time;durP1;ratioP1;P1;durP2;ratioP2;P2;SDS_P1;SDS_P2;PMS_P1;PMS_P2;Temp;Humidity;BMP_temperature;BMP_pressure;BME280_temperature;BME280_humidity;BME280_pressure;Samples;Min_cycle;Max_cycle;Signal;HPM_P1;HPM_P2
2021/05/18 00:01:35;;;;;;;4.05;1.00;;;17.70;63.30;;;;;;5056106;28;20017;-66
2021/05/18 00:04:01;;;;;;;5.25;1.60;;;17.70;63.30;;;;;;5055660;28;20401;-67
2021/05/18 00:06:26;;;;;;;1.85;1.10;;;17.90;63.40;;;;;;5055759;28;20024;-66
2021/05/18 00:11:43;;;;;;;2.80;1.15;;;17.90;63.40;;;;;;5055826;28;20048;-67
2021/05/18 00:14:11;;;;;;;1.67;1.00;;;17.90;63.40;;;;;;5055765;28;20487;-67
2021/05/18 00:16:37;;;;;;;2.15;1.00;;;17.80;63.40;;;;;;5055634;28;20029;-67
2021/05/18 00:19:04;;;;;;;1.92;1.00;;;17.80;63.40;;;;;;5054262;28;20510;-66
2021/05/18 00:21:30;;;;;;;3.35;1.20;;;17.80;63.40;;;;;;5055605;28;20487;-67
2021/05/18 00:23:56;;;;;;;1.55;0.80;;;18.30;63.80;;;;;;5055520;28;20086;-66
2021/05/18 00:26:21;;;;;;;3.58;1.10;;;17.70;63.40;;;;;;5055569;28;20025;-67
2021/05/18 00:28:47;;;;;;;3.75;1.15;;;17.80;63.50;;;;;;5055587;28;20013;-67
2021/05/18 00:31:12;;;;;;;2.47;1.00;;;17.80;63.40;;;;;;5055412;28;20104;-67
2021/05/18 00:33:41;;;;;;;3.53;1.40;;;18.30;63.80;;;;;;5055367;28;20476;-66
2021/05/18 00:36:08;;;;;;;5.07;1.20;;;17.80;63.50;;;;;;5055280;28;20079;-67
2021/05/18 00:38:34;;;;;;;1.52;1.00;;;17.80;63.50;;;;;;5055312;28;20038;-67
2021/05/18 00:41:00;;;;;;;2.60;1.08;;;18.40;63.90;;;;;;5053980;28;20480;-67
2021/05/18 00:43:26;;;;;;;3.17;1.20;;;17.80;63.50;;;;;;5055456;28;20025;-67
2021/05/18 00:45:52;;;;;;;2.40;1.08;;;17.80;63.60;;;;;;5055127;28;20502;-67
2021/05/18 00:48:20;;;;;;;1.80;1.08;;;17.50;63.40;;;;;;5055363;28;20021;-67
2021/05/18 00:50:58;;;;;;;2.03;1.15;;;17.70;63.60;;;;;;5055211;28;20127;-66
2021/05/18 00:53:25;;;;;;;5.07;1.30;;;17.80;63.60;;;;;;5054975;28;20028;-67
2021/05/18 00:55:55;;;;;;;3.33;1.20;;;17.80;63.60;;;;;;5054860;28;20032;-67
2021/05/18 00:58:32;;;;;;;2.60;1.30;;;17.70;63.60;;;;;;5055130;28;20388;-67
2021/05/18 01:01:23;;;;;;;1.33;0.93;;;17.80;63.70;;;;;;5054759;28;20029;-67
2021/05/18 01:03:52;;;;;;;2.15;1.00;;;17.70;88.70;;;;;;5054537;28;20403;-66
2021/05/18 01:08:47;;;;;;;3.70;1.20;;;17.70;63.60;;;;;;5054858;28;20048;-66
2021/05/18 01:11:14;;;;;;;2.50;1.33;;;17.80;63.70;;;;;;5054530;28;20021;-67
2021/05/18 01:13:40;;;;;;;3.58;1.30;;;17.80;63.70;;;;;;5053394;28;20025;-67
2021/05/18 01:16:09;;;;;;;3.72;1.10;;;17.80;88.90;;;;;;5053255;28;20498;-67
2021/05/18 01:18:41;;;;;;;1.77;1.08;;;17.70;63.70;;;;;;5054462;28;20104;-67
2021/05/18 01:21:07;;;;;;;3.38;1.45;;;17.70;63.70;;;;;;5054777;28;20029;-67
2021/05/18 01:23:33;;;;;;;1.63;1.00;;;17.70;63.70;;;;;;5054676;28;20472;-66
2021/05/18 01:25:59;;;;;;;2.25;1.30;;;17.90;63.80;;;;;;5053057;28;20029;-67
2021/05/18 01:28:26;;;;;;;2.95;1.20;;;17.40;63.50;;;;;;5052977;28;20017;-67
2021/05/18 01:30:52;;;;;;;1.25;1.15;;;17.60;63.70;;;;;;5054149;28;20129;-67
2021/05/18 01:33:17;;;;;;;4.47;1.35;;;17.70;63.70;;;;;;5054444;28;20571;-67
2021/05/18 01:35:43;;;;;;;2.55;1.17;;;17.70;63.70;;;;;;5054431;28;20028;-66
2021/05/18 01:38:12;;;;;;;2.85;1.35;;;17.50;63.70;;;;;;5054419;28;20024;-67
2021/05/18 01:43:22;;;;;;;3.78;1.25;;;17.50;63.60;;;;;;5054280;28;20561;-67
2021/05/18 01:45:48;;;;;;;2.58;1.52;;;17.80;63.80;;;;;;5053945;28;20029;-67
2021/05/18 01:48:16;;;;;;;2.50;1.48;;;17.30;63.60;;;;;;5054074;28;20518;-67
2021/05/18 01:50:47;;;;;;;3.17;1.15;;;17.60;63.70;;;;;;5053758;28;20029;-67
2021/05/18 01:53:16;;;;;;;1.80;1.10;;;17.60;63.80;;;;;;5054075;28;20036;-67
2021/05/18 01:55:59;;;;;;;3.83;1.30;;;17.60;63.80;;;;;;5053753;28;20021;-67
2021/05/18 01:58:25;;;;;;;1.88;1.05;;;17.60;63.80;;;;;;5053680;28;20018;-67
2021/05/18 02:00:51;;;;;;;1.60;1.00;;;17.40;63.70;;;;;;5053646;28;20025;-66
2021/05/18 02:03:17;;;;;;;1.38;1.10;;;17.40;63.70;;;;;;5053706;28;20037;-67
2021/05/18 02:05:43;;;;;;;3.00;1.38;;;17.60;63.80;;;;;;5053775;28;20468;-66
2021/05/18 02:08:13;;;;;;;2.67;1.20;;;17.60;63.80;;;;;;5053889;28;20029;-67
2021/05/18 02:10:39;;;;;;;3.97;1.23;;;17.20;63.70;;;;;;5052191;28;20079;-67
2021/05/18 02:13:05;;;;;;;2.08;0.93;;;17.60;89.00;;;;;;5053429;28;20017;-67
2021/05/18 02:18:30;;;;;;;3.33;1.25;;;17.40;63.70;;;;;;5053688;28;20032;-67
2021/05/18 02:26:15;;;;;;;1.52;0.90;;;17.60;63.90;;;;;;5053448;28;20071;-66
2021/05/18 02:28:41;;;;;;;1.70;1.05;;;17.80;90.20;;;;;;5051680;28;20024;-66
2021/05/18 02:31:06;;;;;;;3.13;1.20;;;17.30;63.80;;;;;;5053381;28;20035;-66
2021/05/18 02:33:32;;;;;;;2.88;1.42;;;17.50;63.90;;;;;;5051753;28;20021;-66
2021/05/18 02:35:58;;;;;;;3.00;1.25;;;17.60;64.00;;;;;;5053036;28;20049;-66
2021/05/18 02:38:23;;;;;;;2.63;1.08;;;17.50;63.90;;;;;;5052915;28;20487;-65
2021/05/18 02:40:49;;;;;;;2.13;1.40;;;17.50;64.00;;;;;;5052918;28;20035;-66
2021/05/18 02:43:20;;;;;;;3.22;1.35;;;17.60;64.00;;;;;;5052875;28;20021;-66
2021/05/18 02:51:19;;;;;;;2.55;1.35;;;17.50;63.90;;;;;;5053070;28;20093;-66
2021/05/18 02:53:44;;;;;;;2.20;1.50;;;17.30;63.80;;;;;;5052628;28;20067;-66
2021/05/18 02:56:24;;;;;;;2.35;1.30;;;17.50;64.00;;;;;;5052623;28;20032;-66
2021/05/18 03:01:48;;;;;;;1.73;0.93;;;17.50;64.00;;;;;;5048006;28;20036;-66
2021/05/18 03:04:14;;;;;;;1.17;1.02;;;17.40;64.00;;;;;;5052460;28;20053;-66
2021/05/18 03:06:39;;;;;;;1.45;0.90;;;17.50;64.00;;;;;;5052938;28;20048;-66
2021/05/18 03:09:11;;;;;;;2.25;1.20;;;17.50;64.00;;;;;;5052701;28;20014;-66
2021/05/18 03:11:39;;;;;;;2.10;1.10;;;17.50;64.70;;;;;;5052646;28;20053;-66
2021/05/18 03:14:05;;;;;;;3.08;1.08;;;17.50;64.00;;;;;;5052496;28;20052;-65
2021/05/18 03:16:32;;;;;;;2.35;1.00;;;17.20;63.80;;;;;;5052458;28;20029;-66
2021/05/18 03:18:58;;;;;;;1.13;0.80;;;17.40;64.00;;;;;;5051241;28;20483;-66
2021/05/18 03:21:23;;;;;;;2.22;1.00;;;17.40;63.90;;;;;;5052500;28;20043;-66
2021/05/18 03:23:49;;;;;;;2.95;1.02;;;17.40;63.90;;;;;;5052630;28;20471;-66
2021/05/18 03:26:15;;;;;;;2.17;1.02;;;17.80;64.10;;;;;;5055564;28;20063;-66
2021/05/18 03:28:41;;;;;;;1.85;0.88;;;17.50;64.00;;;;;;5056693;28;20021;-66
2021/05/18 03:34:26;;;;;;;1.83;1.20;;;17.40;63.90;;;;;;5056474;28;20108;-66
2021/05/18 03:36:37;;;;;;;2.97;0.98;;;17.40;63.90;;;;;;5056347;28;20114;-66
2021/05/18 03:39:03;;;;;;;1.95;1.00;;;17.40;63.90;;;;;;5056608;28;20472;-66
2021/05/18 03:41:31;;;;;;;2.08;1.10;;;17.40;63.90;;;;;;5056186;28;20025;-66
2021/05/18 03:44:10;;;;;;;2.00;0.93;;;17.40;63.90;;;;;;5054986;28;20039;-66
2021/05/18 03:54:56;;;;;;;1.77;0.77;;;17.30;63.90;;;;;;5056308;28;20089;-66
2021/05/18 04:16:49;;;;;;;2.92;1.00;;;17.40;64.10;;;;;;5055739;28;20444;-66
2021/05/18 04:21:47;;;;;;;1.40;0.90;;;17.10;63.80;;;;;;5054610;28;20138;-66
2021/05/18 04:40:56;;;;;;;1.85;0.80;;;17.80;64.20;;;;;;5055391;28;20036;-65
2021/05/18 05:01:19;;;;;;;1.15;0.60;;;17.20;63.90;;;;;;5054880;28;20032;-66
2021/05/18 05:03:58;;;;;;;1.42;0.90;;;17.30;64.00;;;;;;5054536;28;20533;-66
2021/05/18 05:09:31;;;;;;;1.60;1.00;;;17.20;89.10;;;;;;5054943;28;20036;-66
2021/05/18 05:14:41;;;;;;;1.52;0.90;;;17.30;64.10;;;;;;5054841;28;20036;-64
2021/05/18 05:17:07;;;;;;;1.77;0.80;;;17.30;64.10;;;;;;5054437;28;20025;-64
2021/05/18 05:19:33;;;;;;;1.00;0.90;;;17.30;64.10;;;;;;5054384;28;20037;-66
2021/05/18 05:22:00;;;;;;;1.23;0.90;;;17.10;64.00;;;;;;5054330;28;20490;-65
2021/05/18 05:24:26;;;;;;;1.48;1.00;;;17.20;64.00;;;;;;5054350;28;20163;-65
2021/05/18 05:26:52;;;;;;;1.33;0.80;;;17.20;64.10;;;;;;5054500;28;20468;-64
2021/05/18 05:29:18;;;;;;;2.35;0.80;;;17.50;64.20;;;;;;5054133;28;20044;-65
2021/05/18 05:31:45;;;;;;;2.05;1.00;;;17.00;64.00;;;;;;5054080;28;20029;-65
2021/05/18 05:34:10;;;;;;;1.45;0.95;;;17.30;64.40;;;;;;5054338;28;20028;-65
2021/05/18 05:36:39;;;;;;;1.00;0.80;;;17.30;64.20;;;;;;5054244;28;20111;-65
2021/05/18 05:39:10;;;;;;;2.60;0.85;;;17.10;64.00;;;;;;5054023;28;20039;-65
2021/05/18 05:41:36;;;;;;;2.58;1.30;;;17.20;64.10;;;;;;5054303;28;20017;-65
2021/05/18 05:44:02;;;;;;;3.03;1.80;;;17.30;64.10;;;;;;5054279;28;20025;-65
2021/05/18 05:46:28;;;;;;;3.85;1.33;;;17.30;64.20;;;;;;5053911;28;20017;-65
2021/05/18 05:48:54;;;;;;;2.05;1.35;;;17.40;64.30;;;;;;5053422;28;20043;-65
2021/05/18 05:51:25;;;;;;;2.00;1.30;;;17.00;64.20;;;;;;5054050;28;20040;-66
2021/05/18 05:53:52;;;;;;;1.10;1.00;;;17.30;64.30;;;;;;5053885;28;20021;-66
2021/05/18 05:56:18;;;;;;;2.90;1.25;;;17.30;64.20;;;;;;5053734;28;20039;-66
2021/05/18 05:58:45;;;;;;;1.15;1.00;;;17.30;64.10;;;;;;5053613;28;20037;-64
2021/05/18 06:01:11;;;;;;;2.40;1.40;;;17.40;64.20;;;;;;5052658;28;20156;-66
2021/05/18 06:03:37;;;;;;;3.20;0.95;;;17.20;64.00;;;;;;5053504;28;20041;-64
2021/05/18 06:06:03;;;;;;;2.08;1.13;;;17.40;64.10;;;;;;5053523;28;20487;-64
2021/05/18 06:08:30;;;;;;;3.42;0.98;;;17.40;64.10;;;;;;5053475;28;20477;-63
2021/05/18 06:11:04;;;;;;;2.00;0.80;;;17.40;63.90;;;;;;5053390;28;20037;-68
2021/05/18 06:42:58;;;;;;;3.75;1.05;;;17.40;64.90;;;;;;5053199;28;20043;-67
2021/05/18 06:48:08;;;;;;;3.28;0.93;;;17.40;64.80;;;;;;5053171;28;20082;-66
2021/05/18 06:50:34;;;;;;;0.88;0.70;;;17.40;64.80;;;;;;5051581;28;20479;-66
2021/05/18 06:53:00;;;;;;;3.50;0.90;;;17.60;64.90;;;;;;5052837;28;20104;-66
2021/05/18 06:55:29;;;;;;;2.47;0.70;;;17.40;64.70;;;;;;5051535;28;20056;-66
2021/05/18 06:58:07;;;;;;;2.72;1.10;;;17.50;63.90;;;;;;5052678;28;20029;-66
2021/05/18 07:00:36;;;;;;;2.33;0.90;;;17.50;64.50;;;;;;5051779;28;20104;-66
2021/05/18 07:03:03;;;;;;;1.23;0.90;;;17.50;64.30;;;;;;5052780;28;20040;-66
2021/05/18 07:05:45;;;;;;;2.90;0.80;;;17.50;64.30;;;;;;5035071;28;20029;-67
2021/05/18 07:10:41;;;;;;;2.67;0.82;;;17.60;64.30;;;;;;5051775;28;20044;-65
2021/05/18 07:13:07;;;;;;;4.40;1.00;;;17.30;64.10;;;;;;5052893;28;20022;-66
2021/05/18 07:15:33;;;;;;;1.30;0.80;;;17.30;64.00;;;;;;5052496;28;20102;-66
2021/05/18 07:17:59;;;;;;;1.95;1.20;;;17.60;64.20;;;;;;5051298;28;20021;-66
2021/05/18 07:20:25;;;;;;;1.52;1.17;;;17.50;64.10;;;;;;5052555;28;20079;-66
2021/05/18 07:22:54;;;;;;;2.72;1.13;;;17.60;64.20;;;;;;5053022;28;20020;-66
2021/05/18 07:25:19;;;;;;;1.30;1.20;;;17.60;64.10;;;;;;5051239;28;20025;-66
2021/05/18 07:27:45;;;;;;;4.45;1.10;;;17.50;64.00;;;;;;5052434;28;20025;-66
2021/05/18 07:30:13;;;;;;;3.22;1.30;;;17.60;64.00;;;;;;5052325;28;20065;-66
2021/05/18 07:32:39;;;;;;;2.08;1.08;;;17.70;64.00;;;;;;5052398;28;20021;-66
2021/05/18 07:35:06;;;;;;;4.40;1.10;;;17.60;64.00;;;;;;5051085;28;20028;-66
2021/05/18 07:37:34;;;;;;;2.53;1.23;;;17.60;64.50;;;;;;5052644;28;20375;-67
2021/05/18 07:40:00;;;;;;;1.85;1.10;;;17.60;88.90;;;;;;5052573;28;20075;-67
2021/05/18 07:42:26;;;;;;;2.70;0.80;;;18.20;64.10;;;;;;5051025;28;20549;-66
2021/05/18 07:44:52;;;;;;;1.50;0.95;;;17.80;63.80;;;;;;5052283;28;20021;-66
2021/05/18 07:47:19;;;;;;;2.22;0.98;;;17.70;63.70;;;;;;5052261;28;20395;-66
2021/05/18 07:49:49;;;;;;;1.98;1.10;;;17.70;63.60;;;;;;5052161;28;20037;-66
2021/05/18 08:01:09;;;;;;;1.80;1.55;;;17.80;88.80;;;;;;5052235;28;20047;-67
2021/05/18 08:05:49;;;;;;;1.88;1.20;;;17.90;63.20;;;;;;5052424;28;20072;-66
2021/05/18 08:08:16;;;;;;;1.00;0.80;;;17.90;63.20;;;;;;5052142;28;20021;-67
2021/05/18 08:10:58;;;;;;;2.83;1.17;;;17.80;63.10;;;;;;5052177;28;20068;-67
2021/05/18 08:13:24;;;;;;;0.90;0.60;;;18.00;63.10;;;;;;5055622;28;20032;-68
2021/05/18 10:36:35;;;;;;;0.77;0.60;;;18.40;62.40;;;;;;5053225;28;20356;-68
2021/05/18 10:38:43;;;;;;;0.57;0.57;;;18.50;62.30;;;;;;5043957;28;20056;-67
2021/05/18 10:41:17;;;;;;;0.70;0.52;;;18.50;62.20;;;;;;5051846;28;20029;-67
2021/05/18 10:43:44;;;;;;;0.50;0.50;;;18.30;62.00;;;;;;5051643;28;20025;-67
2021/05/18 10:46:13;;;;;;;0.75;0.57;;;18.70;62.00;;;;;;5053121;28;20029;-67
2021/05/18 10:48:39;;;;;;;1.30;0.70;;;18.70;62.00;;;;;;5053110;28;20029;-68
2021/05/18 10:51:33;;;;;;;0.95;0.60;;;18.70;61.90;;;;;;5052790;28;20102;-67
2021/05/18 10:54:23;;;;;;;0.55;0.50;;;18.70;61.80;;;;;;5052854;28;20028;-67
2021/05/18 10:59:27;;;;;;;1.08;0.55;;;18.70;61.70;;;;;;5052930;28;20028;-67
2021/05/18 11:02:10;;;;;;;0.60;0.55;;;18.70;61.60;;;;;;5052958;28;20032;-67
2021/05/18 11:04:39;;;;;;;0.68;0.45;;;18.70;86.40;;;;;;5052538;28;20041;-67
2021/05/18 11:07:07;;;;;;;0.50;0.50;;;18.50;61.70;;;;;;5052604;28;20592;-67
2021/05/18 11:09:33;;;;;;;1.02;0.80;;;18.70;62.00;;;;;;5034582;28;20017;-67
2021/05/18 11:12:11;;;;;;;0.57;0.57;;;18.70;61.90;;;;;;5052815;28;20032;-67
2021/05/18 11:14:46;;;;;;;0.77;0.77;;;18.90;61.80;;;;;;5052874;28;20044;-67
2021/05/18 11:17:18;;;;;;;0.50;0.50;;;18.80;61.60;;;;;;5052893;28;20029;-67
2021/05/18 11:20:08;;;;;;;0.60;0.45;;;18.80;62.20;;;;;;5052774;28;20360;-67
2021/05/18 11:25:48;;;;;;;0.30;0.30;;;18.80;61.60;;;;;;5052769;28;20040;-67
2021/05/18 11:28:21;;;;;;;2.97;0.60;;;18.60;62.10;;;;;;5051210;28;20155;-67
2021/05/18 11:31:02;;;;;;;0.80;0.40;;;18.80;61.40;;;;;;5052319;28;20126;-67
2021/05/18 11:33:42;;;;;;;0.77;0.57;;;18.60;61.30;;;;;;5052459;28;20574;-67
2021/05/18 11:36:11;;;;;;;0.50;0.50;;;18.80;61.40;;;;;;5052630;28;20029;-66
2021/05/18 11:38:39;;;;;;;1.08;0.65;;;18.80;61.40;;;;;;5051061;28;20026;-66
2021/05/18 11:41:05;;;;;;;0.47;0.47;;;18.80;61.40;;;;;;5052684;28;20017;-67
2021/05/18 11:43:37;;;;;;;0.52;0.50;;;19.00;61.40;;;;;;5052290;28;20388;-67
2021/05/18 11:46:11;;;;;;;0.82;0.50;;;18.70;61.50;;;;;;5053507;28;20059;-67
2021/05/18 11:48:43;;;;;;;1.30;0.50;;;18.90;61.60;;;;;;5056256;28;20021;-67
2021/05/18 11:51:11;;;;;;;1.17;0.63;;;18.90;61.50;;;;;;5056120;28;20159;-67
2021/05/18 11:53:46;;;;;;;1.35;0.40;;;18.90;61.30;;;;;;5056444;28;20014;-67
2021/05/18 11:56:17;;;;;;;0.68;0.50;;;19.00;61.30;;;;;;5056060;28;20163;-66
2021/05/18 11:58:43;;;;;;;0.85;0.40;;;19.20;85.80;;;;;;5055959;28;20009;-68
2021/05/18 12:01:08;;;;;;;1.38;0.75;;;18.80;61.10;;;;;;5055964;28;20540;-68
2021/05/18 12:03:35;;;;;;;1.65;0.40;;;18.90;61.30;;;;;;5054562;28;20503;-68
2021/05/18 12:06:03;;;;;;;0.70;0.57;;;18.90;61.20;;;;;;5055960;28;20368;-68
2021/05/18 12:08:30;;;;;;;3.33;0.70;;;19.60;61.40;;;;;;5055924;28;20024;-67
2021/05/18 12:11:14;;;;;;;1.15;0.60;;;19.00;61.10;;;;;;5056054;28;20547;-67
2021/05/18 12:13:40;;;;;;;0.47;0.38;;;19.00;61.00;;;;;;5055831;28;20027;-68
2021/05/18 12:16:10;;;;;;;0.40;0.40;;;19.00;60.90;;;;;;5055952;28;20049;-67
2021/05/18 12:18:38;;;;;;;0.80;0.52;;;19.00;61.10;;;;;;5055661;28;20021;-68
2021/05/18 12:21:18;;;;;;;0.50;0.50;;;19.00;61.10;;;;;;5055657;28;20120;-67
2021/05/18 12:24:00;;;;;;;0.40;0.40;;;19.00;60.90;;;;;;5055666;28;20017;-68
2021/05/18 12:26:27;;;;;;;0.93;0.40;;;18.90;60.80;;;;;;5055846;28;20115;-68
2021/05/18 12:29:04;;;;;;;0.60;0.47;;;18.80;60.90;;;;;;5055397;28;20024;-68
2021/05/18 12:31:37;;;;;;;0.75;0.50;;;19.00;61.10;;;;;;5055619;28;20126;-67
2021/05/18 12:34:05;;;;;;;1.77;0.50;;;19.00;61.00;;;;;;5055215;28;20021;-67
2021/05/18 12:36:45;;;;;;;0.63;0.60;;;18.90;60.90;;;;;;5054009;28;20054;-67
2021/05/18 12:39:13;;;;;;;0.90;0.50;;;18.80;60.80;;;;;;5055215;28;20478;-68
2021/05/18 12:41:58;;;;;;;0.50;0.50;;;19.10;61.00;;;;;;5055344;28;20639;-68
2021/05/18 12:44:29;;;;;;;0.52;0.52;;;19.10;61.60;;;;;;5055354;28;20059;-67
2021/05/18 12:47:06;;;;;;;1.27;0.50;;;19.10;60.90;;;;;;5055109;28;20467;-67
2021/05/18 12:49:35;;;;;;;0.50;0.40;;;19.10;60.80;;;;;;5055199;28;20021;-66
2021/05/18 12:52:02;;;;;;;0.77;0.60;;;19.10;60.80;;;;;;5053809;28;20025;-67
2021/05/18 12:54:57;;;;;;;0.98;0.50;;;18.90;60.70;;;;;;5055033;28;20082;-67
2021/05/18 12:57:25;;;;;;;2.05;0.47;;;18.90;60.70;;;;;;5041783;28;20497;-68
2021/05/18 13:00:05;;;;;;;1.40;0.60;;;18.90;60.60;;;;;;5055198;28;20097;-68
2021/05/18 13:02:38;;;;;;;2.25;0.50;;;19.20;60.70;;;;;;5054943;28;20048;-67
2021/05/18 13:05:10;;;;;;;1.70;0.47;;;19.20;60.50;;;;;;5054609;28;20041;-66
2021/05/18 13:07:35;;;;;;;0.85;0.40;;;19.20;60.40;;;;;;5054787;28;20027;-67
2021/05/18 13:10:15;;;;;;;0.57;0.52;;;18.90;60.20;;;;;;5054640;28;20025;-65
2021/05/18 13:12:41;;;;;;;0.68;0.40;;;19.20;60.30;;;;;;5053555;28;20057;-67
2021/05/18 13:15:21;;;;;;;1.00;0.57;;;18.90;60.40;;;;;;5054512;28;20059;-67
2021/05/18 13:17:58;;;;;;;1.25;0.45;;;19.30;60.60;;;;;;5054688;28;20021;-67
2021/05/18 13:20:34;;;;;;;1.05;0.43;;;19.30;60.60;;;;;;5054498;28;20480;-68
2021/05/18 13:23:01;;;;;;;0.80;0.45;;;19.20;60.60;;;;;;5054582;28;20025;-67
2021/05/18 13:28:11;;;;;;;1.08;0.57;;;19.40;61.20;;;;;;5054960;28;20449;-68
2021/05/18 13:30:37;;;;;;;1.00;0.30;;;19.50;60.70;;;;;;5054304;28;20072;-68
2021/05/18 13:33:04;;;;;;;3.45;0.40;;;19.20;60.40;;;;;;5054259;28;20080;-67
2021/05/18 13:35:31;;;;;;;0.60;0.40;;;19.60;60.50;;;;;;5054279;28;20080;-67
2021/05/18 13:38:00;;;;;;;0.75;0.30;;;19.60;60.40;;;;;;5052934;28;20021;-66
2021/05/18 13:40:27;;;;;;;0.50;0.30;;;19.60;60.20;;;;;;5054000;28;20029;-66
2021/05/18 13:42:54;;;;;;;0.75;0.50;;;19.80;60.00;;;;;;5052715;28;20021;-67
2021/05/18 13:45:25;;;;;;;0.60;0.40;;;19.40;59.60;;;;;;5054182;28;20023;-66
2021/05/18 13:47:53;;;;;;;0.38;0.30;;;19.50;59.60;;;;;;5053881;28;20021;-66
2021/05/18 13:50:20;;;;;;;1.65;0.60;;;19.80;59.70;;;;;;5054012;28;20146;-65
2021/05/18 13:52:46;;;;;;;2.47;0.40;;;19.80;59.60;;;;;;5054132;28;20101;-67
2021/05/18 13:55:11;;;;;;;5.22;0.40;;;19.60;59.50;;;;;;5053768;28;20068;-67
2021/05/18 13:57:37;;;;;;;0.55;0.50;;;19.60;59.60;;;;;;5053536;28;20051;-67
2021/05/18 14:00:08;;;;;;;2.95;0.60;;;19.70;59.60;;;;;;5052559;28;20025;-66
2021/05/18 14:02:36;;;;;;;1.05;0.38;;;19.90;59.60;;;;;;5053922;28;20367;-65
2021/05/18 14:05:02;;;;;;;0.80;0.40;;;19.80;59.40;;;;;;5053475;28;20183;-66
2021/05/18 14:08:45;;;;;;;0.35;0.28;;;20.00;59.40;;;;;;5035778;28;20400;-66
2021/05/18 14:10:46;;;;;;;3.20;0.43;;;20.00;59.40;;;;;;5049297;28;20438;-65
2021/05/18 14:13:12;;;;;;;0.50;0.47;;;20.50;59.60;;;;;;5053565;28;20021;-66
2021/05/18 14:15:39;;;;;;;1.00;0.30;;;19.90;59.20;;;;;;5053551;28;20494;-65
2021/05/18 14:18:05;;;;;;;1.27;0.60;;;19.80;58.90;;;;;;5053667;28;20468;-65
2021/05/18 14:20:30;;;;;;;0.32;0.20;;;20.10;59.00;;;;;;5053590;28;20122;-66
2021/05/18 14:22:56;;;;;;;0.85;0.35;;;20.20;59.00;;;;;;5053276;28;20017;-65
2021/05/18 14:25:21;;;;;;;0.98;0.47;;;20.10;58.80;;;;;;5053104;28;20375;-65
2021/05/18 14:27:47;;;;;;;0.30;0.30;;;20.60;59.00;;;;;;5053016;28;20031;-65
2021/05/18 14:30:14;;;;;;;0.35;0.28;;;20.20;58.70;;;;;;5053039;28;20170;-64
2021/05/18 14:32:42;;;;;;;0.90;0.30;;;20.20;58.70;;;;;;5051790;28;20495;-64
2021/05/18 14:35:10;;;;;;;0.22;0.22;;;20.00;58.60;;;;;;5053043;28;20025;-66
2021/05/18 14:37:38;;;;;;;0.57;0.55;;;20.20;58.70;;;;;;5053302;28;20013;-66
2021/05/18 14:42:51;;;;;;;1.27;0.55;;;20.30;58.80;;;;;;5053274;28;20037;-66
2021/05/18 14:45:18;;;;;;;0.55;0.40;;;20.30;59.20;;;;;;5051611;28;20021;-67
2021/05/18 14:55:44;;;;;;;0.50;0.30;;;20.30;58.50;;;;;;5052953;28;20048;-66
2021/05/18 14:58:10;;;;;;;3.92;0.30;;;20.30;58.50;;;;;;5051329;28;20427;-67
2021/05/18 15:00:38;;;;;;;2.42;0.50;;;20.20;58.30;;;;;;5052867;28;20020;-68
2021/05/18 15:03:04;;;;;;;0.85;0.40;;;20.50;58.40;;;;;;5051182;28;20108;-67
2021/05/18 15:05:29;;;;;;;0.52;0.20;;;21.10;58.70;;;;;;5052703;28;20112;-68
2021/05/18 15:07:55;;;;;;;0.40;0.30;;;20.40;58.20;;;;;;5052451;28;20029;-67
2021/05/18 15:10:21;;;;;;;0.63;0.40;;;20.40;58.20;;;;;;5052650;28;20021;-67
2021/05/18 15:12:47;;;;;;;2.30;0.32;;;20.40;58.10;;;;;;5052759;28;20027;-65
2021/05/18 15:15:14;;;;;;;0.30;0.30;;;20.10;58.10;;;;;;5052765;28;20104;-66
2021/05/18 15:17:40;;;;;;;0.30;0.22;;;20.30;58.20;;;;;;5052784;28;20036;-66
2021/05/18 15:20:07;;;;;;;0.25;0.25;;;20.30;58.20;;;;;;5052502;28;20379;-66
2021/05/18 15:22:33;;;;;;;0.40;0.40;;;20.30;58.30;;;;;;5054626;28;20025;-66
2021/05/18 15:24:59;;;;;;;0.55;0.40;;;20.00;58.20;;;;;;5056920;28;20460;-65
2021/05/18 15:27:25;;;;;;;1.10;0.30;;;20.20;58.30;;;;;;5056627;28;20025;-66
2021/05/18 15:29:52;;;;;;;0.43;0.20;;;20.20;58.30;;;;;;5056523;28;20041;-66
2021/05/18 15:32:17;;;;;;;0.40;0.32;;;20.20;58.20;;;;;;5055144;28;20013;-66
2021/05/18 15:34:43;;;;;;;0.82;0.38;;;20.10;58.00;;;;;;5056501;28;20182;-66
2021/05/18 15:37:09;;;;;;;0.35;0.20;;;20.00;57.90;;;;;;5055217;28;20028;-66
2021/05/18 15:39:36;;;;;;;0.95;0.40;;;20.20;58.00;;;;;;5056765;28;20533;-66
2021/05/18 15:42:02;;;;;;;0.17;0.17;;;20.20;58.00;;;;;;5056291;28;20431;-65
2021/05/18 15:44:27;;;;;;;0.38;0.30;;;19.90;57.90;;;;;;5055373;28;20021;-66
2021/05/18 15:46:53;;;;;;;0.82;0.50;;;20.10;57.80;;;;;;5056293;28;20114;-66
2021/05/18 15:49:19;;;;;;;0.70;0.38;;;20.60;58.20;;;;;;5056018;28;20063;-66
2021/05/18 15:51:45;;;;;;;4.07;1.80;;;20.00;57.70;;;;;;5055766;28;20040;-67
2021/05/18 15:54:10;;;;;;;1.63;1.00;;;20.20;57.90;;;;;;5053915;28;20421;-66
2021/05/18 15:56:36;;;;;;;1.23;1.02;;;20.10;57.80;;;;;;5054935;28;20025;-67
2021/05/18 15:59:03;;;;;;;0.90;0.80;;;19.90;57.70;;;;;;5055339;28;20376;-67
2021/05/18 16:01:29;;;;;;;2.08;0.82;;;20.20;57.60;;;;;;5056048;28;20029;-67
2021/05/18 16:03:54;;;;;;;0.90;0.90;;;20.20;57.60;;;;;;5055910;28;20033;-67
2021/05/18 16:06:22;;;;;;;1.48;0.70;;;20.20;57.70;;;;;;5054660;28;20031;-67
2021/05/18 16:11:13;;;;;;;0.95;0.60;;;19.90;57.50;;;;;;5054937;28;20400;-66
2021/05/18 16:13:40;;;;;;;0.85;0.65;;;19.80;57.30;;;;;;5055730;28;20017;-66
2021/05/18 16:16:11;;;;;;;0.95;0.65;;;20.20;57.50;;;;;;5053668;28;20032;-66
2021/05/18 16:18:39;;;;;;;1.48;0.65;;;19.90;57.50;;;;;;5055153;28;20025;-66
2021/05/18 16:21:06;;;;;;;1.15;0.80;;;20.10;57.60;;;;;;5055430;28;20067;-65
2021/05/18 16:23:33;;;;;;;1.48;0.88;;;20.00;57.50;;;;;;5055005;28;20009;-66
2021/05/18 16:25:59;;;;;;;0.50;0.50;;;20.20;57.80;;;;;;5055888;28;20094;-65
2021/05/18 16:28:25;;;;;;;1.88;0.57;;;20.20;82.20;;;;;;5055495;28;20479;-66
2021/05/18 16:30:51;;;;;;;0.85;0.60;;;20.00;57.80;;;;;;5055401;28;20029;-66
2021/05/18 16:33:17;;;;;;;1.15;0.63;;;20.20;57.70;;;;;;5055256;28;20067;-66
2021/05/18 16:35:44;;;;;;;0.98;0.50;;;20.20;57.90;;;;;;5055411;28;20418;-66
2021/05/18 16:38:10;;;;;;;0.60;0.43;;;19.90;57.70;;;;;;5055329;28;20021;-67
2021/05/18 16:40:35;;;;;;;0.73;0.43;;;20.20;82.20;;;;;;5055531;28;20078;-67
2021/05/18 16:43:01;;;;;;;0.55;0.45;;;20.10;57.90;;;;;;5055259;28;20604;-67
2021/05/18 16:45:27;;;;;;;0.98;0.52;;;20.10;57.90;;;;;;5055466;28;20353;-68
2021/05/18 16:47:52;;;;;;;0.82;0.38;;;20.10;57.90;;;;;;5055009;28;20471;-66
2021/05/18 16:50:19;;;;;;;0.63;0.47;;;20.10;58.00;;;;;;5055029;28;20116;-66
2021/05/18 16:52:45;;;;;;;0.60;0.40;;;20.10;58.00;;;;;;5055091;28;20074;-67
2021/05/18 16:55:12;;;;;;;1.10;0.50;;;20.50;58.30;;;;;;5054888;28;20024;-68
2021/05/18 16:57:38;;;;;;;1.20;0.57;;;20.10;58.10;;;;;;5055050;28;20096;-68
2021/05/18 17:00:06;;;;;;;1.05;0.60;;;20.10;58.10;;;;;;5055198;28;20094;-67
2021/05/18 17:02:33;;;;;;;1.38;0.50;;;20.10;58.10;;;;;;5054765;28;20067;-68
2021/05/18 17:04:59;;;;;;;0.40;0.40;;;20.10;58.20;;;;;;5054566;28;20041;-68
2021/05/18 17:07:24;;;;;;;0.88;0.50;;;19.70;58.00;;;;;;5054633;28;20037;-67
2021/05/18 17:09:50;;;;;;;2.78;0.52;;;20.10;58.30;;;;;;5054580;28;20100;-68
2021/05/18 17:12:19;;;;;;;0.90;0.35;;;19.80;58.10;;;;;;5054582;28;20040;-67
2021/05/18 17:14:46;;;;;;;0.57;0.50;;;20.00;58.20;;;;;;5054110;28;20028;-68
2021/05/18 17:17:13;;;;;;;0.90;0.50;;;20.00;58.30;;;;;;5053664;28;20071;-68
2021/05/18 17:19:43;;;;;;;0.50;0.40;;;20.00;58.30;;;;;;5054842;28;20031;-67
2021/05/18 17:22:10;;;;;;;1.02;0.50;;;20.00;58.30;;;;;;5054755;28;20024;-67
2021/05/18 17:24:36;;;;;;;1.52;0.52;;;19.90;58.30;;;;;;5054450;28;20029;-67
2021/05/18 17:27:03;;;;;;;1.58;0.65;;;19.80;58.40;;;;;;5054390;28;20109;-68
2021/05/18 17:29:30;;;;;;;0.60;0.40;;;20.00;58.50;;;;;;5054144;28;20021;-68
2021/05/18 17:31:55;;;;;;;0.55;0.22;;;20.00;58.40;;;;;;5054370;28;20028;-68
2021/05/18 17:34:22;;;;;;;0.63;0.40;;;20.00;58.60;;;;;;5054359;28;20025;-68
2021/05/18 17:36:48;;;;;;;0.80;0.60;;;19.90;58.50;;;;;;5054569;28;20429;-68
2021/05/18 17:39:14;;;;;;;0.60;0.50;;;19.90;58.50;;;;;;5054429;28;20539;-67
2021/05/18 17:41:40;;;;;;;0.47;0.40;;;19.70;58.40;;;;;;5054139;28;20025;-68
2021/05/18 17:44:05;;;;;;;1.25;0.63;;;19.70;58.50;;;;;;5053151;28;20070;-68
2021/05/18 17:46:32;;;;;;;1.38;0.50;;;20.00;58.60;;;;;;5054054;28;20025;-68
2021/05/18 17:48:59;;;;;;;0.73;0.40;;;19.90;58.60;;;;;;5054262;28;20096;-68
2021/05/18 17:51:24;;;;;;;0.82;0.35;;;20.60;59.00;;;;;;5053822;28;20037;-67
2021/05/18 17:53:51;;;;;;;0.98;0.40;;;20.20;83.30;;;;;;5053842;28;20032;-67
2021/05/18 17:56:17;;;;;;;1.17;0.40;;;19.80;58.60;;;;;;5053757;28;20025;-68
2021/05/18 17:58:42;;;;;;;0.80;0.40;;;19.90;58.70;;;;;;5053749;28;20025;-68
2021/05/18 18:01:08;;;;;;;0.90;0.47;;;19.60;58.50;;;;;;5052441;28;20086;-69